createdAt,value
2019-06-08T00:02:20.674Z,100511.95
2019-06-08T00:04:49.147Z,100507.41
2019-06-08T00:07:18.819Z,100511.40
2019-06-08T00:09:47.444Z,100516.28
2019-06-08T00:12:16.868Z,100513.22
2019-06-08T00:14:45.247Z,100513.42
2019-06-08T00:17:27.399Z,100522.20
2019-06-08T00:19:43.634Z,100524.69
2019-06-08T00:22:12.043Z,100532.88
2019-06-08T00:24:40.416Z,100523.56
2019-06-08T00:27:08.700Z,100532.44
2019-06-08T00:29:37.557Z,100533.92
2019-06-08T00:32:05.966Z,100537.55
2019-06-08T00:34:35.943Z,100540.51
2019-06-08T00:37:04.299Z,100539.48
2019-06-08T00:39:32.753Z,100540.62
2019-06-08T00:42:01.081Z,100539.25
2019-06-08T00:44:29.464Z,100533.22
2019-06-08T00:46:57.847Z,100529.59
2019-06-08T00:49:26.312Z,100535.83
2019-06-08T00:51:54.733Z,100532.91
2019-06-08T00:54:23.515Z,100539.48
2019-06-08T00:56:51.858Z,100540.04
2019-06-08T00:59:20.176Z,100546.88
2019-06-08T01:01:48.569Z,100542.90
2019-06-08T01:04:16.906Z,100543.80
2019-06-08T01:06:45.212Z,100543.01
2019-06-08T01:09:13.538Z,100539.94
2019-06-08T01:11:41.844Z,100534.26
2019-06-08T01:14:10.363Z,100529.03
2019-06-08T01:16:38.652Z,100535.05
2019-06-08T01:19:06.973Z,100540.98
2019-06-08T01:21:35.296Z,100538.80
2019-06-08T01:24:03.560Z,100536.98
2019-06-08T01:26:32.763Z,100535.84
2019-06-08T01:29:01.055Z,100535.86
2019-06-08T01:31:30.514Z,100529.62
2019-06-08T01:33:59.089Z,100531.06
2019-06-08T01:36:29.169Z,100535.05
2019-06-08T01:38:57.525Z,100533.36
2019-06-08T01:41:25.873Z,100534.81
2019-06-08T01:43:54.173Z,100523.23
2019-06-08T01:46:23.767Z,100532.34
2019-06-08T01:48:52.260Z,100522.21
2019-06-08T01:51:20.548Z,100520.96
2019-06-08T01:53:48.887Z,100534.84
2019-06-08T01:56:17.298Z,100524.83
2019-06-08T01:58:45.584Z,100525.98
2019-06-08T02:01:14.017Z,100521.08
2019-06-08T02:03:42.324Z,100526.08
2019-06-08T02:06:10.654Z,100517.06
2019-06-08T02:08:39.163Z,100523.78
2019-06-08T02:11:07.539Z,100526.86
2019-06-08T02:13:35.847Z,100523.66
2019-06-08T02:16:04.207Z,100524.24
2019-06-08T02:18:43.826Z,100529.79
2019-06-08T02:21:02.693Z,100541.19
2019-06-08T02:23:31.144Z,100536.50
2019-06-08T02:25:59.585Z,100540.25
2019-06-08T02:28:27.881Z,100532.88
2019-06-08T02:30:56.728Z,100533.66
2019-06-08T02:33:25.156Z,100539.70
2019-06-08T02:35:53.553Z,100531.73
2019-06-08T02:38:21.847Z,100531.39
2019-06-08T02:40:50.167Z,100526.13
2019-06-08T02:43:18.467Z,100528.54
2019-06-08T02:45:46.776Z,100528.54
2019-06-08T02:48:15.106Z,100522.61
2019-06-08T02:50:49.076Z,100527.48
2019-06-08T02:53:18.463Z,100535.02
2019-06-08T02:55:48.299Z,100541.50
2019-06-08T02:58:17.448Z,100531.58
2019-06-08T03:00:46.958Z,100537.86
2019-06-08T03:03:15.732Z,100537.28
2019-06-08T03:05:45.389Z,100545.71
2019-06-08T03:08:13.729Z,100547.86
2019-06-08T03:10:42.476Z,100542.16
2019-06-08T03:13:11.667Z,100544.89
2019-06-08T03:15:41.515Z,100554.80
2019-06-08T03:18:09.996Z,100544.81
2019-06-08T03:20:40.143Z,100545.13
2019-06-08T03:23:08.920Z,100553.20
2019-06-08T03:25:47.337Z,100539.23
2019-06-08T03:28:07.301Z,100548.32
2019-06-08T03:30:42.215Z,100552.07
2019-06-08T03:33:05.768Z,100546.95
2019-06-08T03:35:36.042Z,100561.75
2019-06-08T03:38:04.475Z,100560.15
2019-06-08T03:40:33.916Z,100564.59
2019-06-08T03:43:02.532Z,100562.45
2019-06-08T03:45:30.906Z,100566.75
2019-06-08T03:47:59.200Z,100573.92
2019-06-08T03:50:27.523Z,100570.17
2019-06-08T03:52:55.992Z,100569.59
2019-06-08T03:55:24.286Z,100579.50
2019-06-08T03:57:52.624Z,100574.16
2019-06-08T04:00:20.935Z,100577.70
2019-06-08T04:02:50.287Z,100573.48
2019-06-08T04:05:18.663Z,100579.27
2019-06-08T04:07:47.886Z,100575.41
2019-06-08T04:10:16.210Z,100577.91
2019-06-08T04:12:46.152Z,100580.64
2019-06-08T04:15:15.418Z,100589.53
2019-06-08T04:17:44.124Z,100598.19
2019-06-08T04:20:12.819Z,100597.95
2019-06-08T04:22:44.725Z,100600.69
2019-06-08T04:25:13.648Z,100601.47
2019-06-08T04:27:42.263Z,100607.28
2019-06-08T04:30:11.006Z,100611.84
2019-06-08T04:32:40.707Z,100607.98
2019-06-08T04:35:09.575Z,100616.84
2019-06-08T04:37:38.424Z,100625.59
2019-06-08T04:40:08.168Z,100620.59
2019-06-08T04:42:36.471Z,100617.08
2019-06-08T04:45:10.717Z,100623.33
2019-06-08T04:47:40.708Z,100620.25
2019-06-08T04:50:21.758Z,100630.73
2019-06-08T04:52:40.814Z,100625.04
2019-06-08T04:55:09.175Z,100635.38
2019-06-08T04:57:39.415Z,100640.99
2019-06-08T05:00:13.097Z,100639.39
2019-06-08T05:02:39.792Z,100649.41
2019-06-08T05:05:08.981Z,100638.83
2019-06-08T05:07:39.003Z,100649.29
2019-06-08T05:10:08.781Z,100651.67
2019-06-08T05:12:37.084Z,100652.25
2019-06-08T05:15:08.613Z,100649.64
2019-06-08T05:17:37.035Z,100657.27
2019-06-08T05:20:08.961Z,100659.18
2019-06-08T05:22:37.323Z,100663.27
2019-06-08T05:25:08.825Z,100662.73
2019-06-08T05:27:37.110Z,100661.91
2019-06-08T05:30:08.691Z,100661.58
2019-06-08T05:32:37.242Z,100658.96
2019-06-08T05:35:06.457Z,100661.56
2019-06-08T05:37:34.815Z,100669.08
2019-06-08T05:40:03.567Z,100662.78
2019-06-08T05:42:31.930Z,100666.64
2019-06-08T05:45:00.337Z,100675.41
2019-06-08T05:47:28.793Z,100672.21
2019-06-08T05:49:57.185Z,100672.55
2019-06-08T05:52:25.595Z,100678.48
2019-06-08T05:54:53.873Z,100679.84
2019-06-08T05:57:22.211Z,100678.05
2019-06-08T05:59:50.554Z,100687.39
2019-06-08T06:02:18.882Z,100690.69
2019-06-08T06:04:51.587Z,100688.43
2019-06-08T06:07:17.383Z,100692.31
2019-06-08T06:09:46.993Z,100698.69
2019-06-08T06:12:15.442Z,100691.95
2019-06-08T06:14:44.976Z,100700.05
2019-06-08T06:17:13.482Z,100709.03
2019-06-08T06:19:42.915Z,100715.85
2019-06-08T06:22:11.445Z,100721.87
2019-06-08T06:24:41.621Z,100729.73
2019-06-08T06:27:09.933Z,100718.69
2019-06-08T06:29:38.346Z,100731.41
2019-06-08T06:32:06.659Z,100732.67
2019-06-08T06:34:35.093Z,100727.69
2019-06-08T06:37:03.399Z,100728.14
2019-06-08T06:39:31.909Z,100741.21
2019-06-08T06:42:00.213Z,100739.50
2019-06-08T06:44:28.723Z,100746.80
2019-06-08T06:46:57.168Z,100753.86
2019-06-08T06:49:25.480Z,100731.09
2019-06-08T06:51:53.761Z,100749.97
2019-06-08T06:54:22.148Z,100762.05
2019-06-08T06:56:51.783Z,100764.78
2019-06-08T06:59:20.204Z,100766.91
2019-06-08T07:01:52.645Z,100773.43
2019-06-08T07:04:18.572Z,100777.19
2019-06-08T07:06:48.033Z,100764.08
2019-06-08T07:09:16.605Z,100772.04
2019-06-08T07:11:44.884Z,100776.71
2019-06-08T07:14:13.187Z,100788.46
2019-06-08T07:16:41.486Z,100779.89
2019-06-08T07:19:09.802Z,100794.67
2019-06-08T07:21:41.823Z,100802.07
2019-06-08T07:24:08.306Z,100809.14
2019-06-08T07:26:36.733Z,100808.31
2019-06-08T07:29:05.072Z,100805.04
2019-06-08T07:31:33.522Z,100810.70
2019-06-08T07:34:01.900Z,100805.63
2019-06-08T07:36:30.211Z,100820.13
2019-06-08T07:38:59.663Z,100825.47
2019-06-08T07:41:28.193Z,100826.02
2019-06-08T07:43:56.682Z,100835.58
2019-06-08T07:46:25.178Z,100829.23
2019-06-08T07:48:54.428Z,100840.91
2019-06-08T07:51:22.829Z,100843.88
2019-06-08T07:53:51.526Z,100825.28
2019-06-08T07:56:19.910Z,100849.41
2019-06-08T07:58:51.452Z,100863.85
2019-06-08T08:01:34.968Z,100853.27
2019-06-08T08:03:49.962Z,100862.34
2019-06-08T08:06:18.347Z,100863.53
2019-06-08T08:08:46.814Z,100860.08
2019-06-08T08:11:15.273Z,100867.45
2019-06-08T08:13:43.686Z,100863.05
2019-06-08T08:16:11.964Z,100871.58
2019-06-08T08:18:40.407Z,100865.69
2019-06-08T08:21:21.189Z,100888.89
2019-06-08T08:23:38.806Z,100872.60
2019-06-08T08:26:07.082Z,100882.35
2019-06-08T08:28:37.513Z,100882.20
2019-06-08T08:31:07.773Z,100882.90
2019-06-08T08:33:37.863Z,100882.11
2019-06-08T08:36:07.274Z,100881.67
2019-06-08T08:38:38.060Z,100887.82
2019-06-08T08:41:10.045Z,100895.22
2019-06-08T08:43:37.752Z,100886.59
2019-06-08T08:46:07.663Z,100886.94
2019-06-08T08:48:37.741Z,100897.81
2019-06-08T08:51:08.383Z,100897.46
2019-06-08T08:53:37.456Z,100903.80
2019-06-08T08:56:07.316Z,100909.53
2019-06-08T08:58:37.957Z,100903.23
2019-06-08T09:01:08.079Z,100909.14
2019-06-08T09:03:35.923Z,100908.20
2019-06-08T09:06:04.628Z,100915.30
2019-06-08T09:08:33.190Z,100930.12
2019-06-08T09:11:03.554Z,100922.66
2019-06-08T09:13:31.518Z,100930.03
2019-06-08T09:16:02.326Z,100937.45
2019-06-08T09:18:29.945Z,100942.20
2019-06-08T09:21:00.286Z,100948.05
2019-06-08T09:23:28.364Z,100948.91
2019-06-08T09:26:03.947Z,100945.84
2019-06-08T09:28:28.541Z,100949.21
2019-06-08T09:31:00.303Z,100957.00
2019-06-08T09:33:28.772Z,100952.59
2019-06-08T09:35:59.956Z,100955.56
2019-06-08T09:38:28.700Z,100959.30
2019-06-08T09:40:59.847Z,100967.39
2019-06-08T09:43:28.925Z,100978.16
2019-06-08T09:46:00.521Z,100976.27
2019-06-08T09:48:28.837Z,100986.28
2019-06-08T09:50:59.854Z,100980.61
2019-06-08T09:53:36.605Z,100977.30
2019-06-08T09:56:01.349Z,100981.67
2019-06-08T09:58:29.067Z,100985.44
2019-06-08T10:01:01.997Z,101003.69
2019-06-08T10:03:27.768Z,100983.90
2019-06-08T10:06:01.506Z,100992.75
2019-06-08T10:08:28.324Z,100986.27
2019-06-08T10:10:59.463Z,100986.95
2019-06-08T10:13:28.131Z,100992.23
2019-06-08T10:16:00.057Z,100986.34
2019-06-08T10:18:28.538Z,100992.74
2019-06-08T10:21:00.620Z,101001.86
2019-06-08T10:23:34.174Z,100997.92
2019-06-08T10:26:01.309Z,101000.55
2019-06-08T10:28:29.078Z,100996.13
2019-06-08T10:30:59.680Z,100989.39
2019-06-08T10:33:28.165Z,100995.64
2019-06-08T10:35:59.139Z,101002.16
2019-06-08T10:38:28.879Z,101015.56
2019-06-08T10:41:14.785Z,101010.35
2019-06-08T10:43:33.349Z,101011.50
2019-06-08T10:46:08.461Z,101027.00
2019-06-08T10:48:31.797Z,101018.80
2019-06-08T10:51:03.409Z,101017.09
2019-06-08T10:53:44.978Z,101035.17
2019-06-08T10:56:01.712Z,101036.30
2019-06-08T10:58:30.189Z,101035.05
2019-06-08T11:01:02.158Z,101036.20
2019-06-08T11:03:30.691Z,101044.91
2019-06-08T11:06:00.726Z,101031.84
2019-06-08T11:08:28.673Z,101046.44
2019-06-08T11:10:57.956Z,101046.92
2019-06-08T11:13:28.381Z,101046.73
2019-06-08T11:15:58.635Z,101050.73
2019-06-08T11:18:28.683Z,101056.34
2019-06-08T11:20:58.444Z,101062.30
2019-06-08T11:23:28.785Z,101058.77
2019-06-08T11:25:59.476Z,101068.33
2019-06-08T11:28:28.315Z,101080.11
2019-06-08T11:30:56.987Z,101063.13
2019-06-08T11:33:25.274Z,101074.90
2019-06-08T11:35:53.582Z,101077.73
2019-06-08T11:38:21.889Z,101089.17
2019-06-08T11:40:50.250Z,101082.25
2019-06-08T11:43:18.697Z,101091.61
2019-06-08T11:45:48.099Z,101096.74
2019-06-08T11:48:18.295Z,101100.97
2019-06-08T11:50:48.863Z,101106.80
2019-06-08T11:53:17.985Z,101090.47
2019-06-08T11:55:50.651Z,101104.50
2019-06-08T11:58:22.565Z,101106.42
2019-06-08T12:01:01.822Z,101097.87
2019-06-08T12:03:30.575Z,101106.77
2019-06-08T12:05:59.011Z,101107.67
2019-06-08T12:08:28.444Z,101111.40
2019-06-08T12:11:01.258Z,101103.33
2019-06-08T12:13:27.901Z,101096.81
2019-06-08T12:15:58.739Z,101099.85
2019-06-08T12:18:26.481Z,101111.16
2019-06-08T12:20:54.762Z,101123.73
2019-06-08T12:23:23.197Z,101123.88
2019-06-08T12:25:52.265Z,101129.88
2019-06-08T12:28:20.801Z,101124.41
2019-06-08T12:30:49.187Z,101143.91
2019-06-08T12:33:22.602Z,101149.55
2019-06-08T12:35:49.173Z,101143.53
2019-06-08T12:38:18.976Z,101154.03
2019-06-08T12:40:48.595Z,101156.60
2019-06-08T12:43:18.912Z,101164.89
2019-06-08T12:45:47.831Z,101157.30
2019-06-08T12:48:20.233Z,101164.83
2019-06-08T12:50:47.829Z,101176.22
2019-06-08T12:53:20.749Z,101171.80
2019-06-08T12:55:47.587Z,101170.97
2019-06-08T12:58:19.939Z,101167.90
2019-06-08T13:00:48.330Z,101167.47
2019-06-08T13:03:17.001Z,101173.63
2019-06-08T13:05:45.288Z,101175.70
2019-06-08T13:08:13.585Z,101190.94
2019-06-08T13:10:42.430Z,101180.92
2019-06-08T13:13:12.682Z,101201.48
2019-06-08T13:15:41.195Z,101222.45
2019-06-08T13:18:10.657Z,101243.69
2019-06-08T13:20:39.656Z,101258.00
2019-06-08T13:23:09.906Z,101251.77
2019-06-08T13:25:42.962Z,101263.20
2019-06-08T13:28:13.062Z,101251.86
2019-06-08T13:30:39.095Z,101240.27
2019-06-08T13:33:08.113Z,101240.33
2019-06-08T13:35:39.242Z,101239.34
2019-06-08T13:38:08.693Z,101246.19
2019-06-08T13:40:37.793Z,101247.36
2019-06-08T13:43:08.124Z,101241.59
2019-06-08T13:45:39.054Z,101241.24
2019-06-08T13:48:08.745Z,101264.35
2019-06-08T13:50:36.844Z,101284.87
2019-06-08T13:53:05.168Z,101289.84
2019-06-08T13:55:48.565Z,101285.75
2019-06-08T13:58:03.614Z,101289.55
2019-06-08T14:00:38.139Z,101284.14
2019-06-08T14:03:08.506Z,101287.87
2019-06-08T14:05:38.800Z,101286.02
2019-06-08T14:08:10.649Z,101285.14
2019-06-08T14:10:38.994Z,101282.64
2019-06-08T14:13:07.343Z,101290.42
2019-06-08T14:15:37.666Z,101288.42
2019-06-08T14:18:08.503Z,101285.47
2019-06-08T14:20:38.237Z,101286.27
2019-06-08T14:23:05.737Z,101283.48
2019-06-08T14:25:47.961Z,101281.65
2019-06-08T14:28:04.654Z,101294.36
2019-06-08T14:30:33.315Z,101294.61
2019-06-08T14:33:01.652Z,101295.64
2019-06-08T14:35:30.276Z,101301.93
2019-06-08T14:37:58.583Z,101293.38
2019-06-08T14:40:31.042Z,101302.63
2019-06-08T14:42:58.067Z,101301.69
2019-06-08T14:45:28.956Z,101299.23
2019-06-08T14:47:58.589Z,101310.17
2019-06-08T14:50:29.298Z,101316.61
2019-06-08T14:52:58.860Z,101340.70
2019-06-08T14:55:29.734Z,101337.37
2019-06-08T14:57:58.025Z,101337.03
2019-06-08T15:00:27.765Z,101320.53
2019-06-08T15:02:58.666Z,101275.66
2019-06-08T15:05:28.924Z,101282.31
2019-06-08T15:08:00.391Z,101302.20
2019-06-08T15:10:29.434Z,101287.20
2019-06-08T15:12:57.731Z,101290.08
2019-06-08T15:15:28.873Z,101298.77
2019-06-08T15:17:58.149Z,101308.20
2019-06-08T15:20:26.421Z,101308.11
2019-06-08T15:22:54.861Z,101319.08
2019-06-08T15:25:23.144Z,101373.63
2019-06-08T15:27:51.427Z,101405.87
2019-06-08T15:30:20.859Z,101344.08
2019-06-08T15:32:49.586Z,101334.16
2019-06-08T15:35:18.207Z,101351.31
2019-06-08T15:37:47.877Z,101330.77
2019-06-08T15:40:17.803Z,101341.73
2019-06-08T15:42:48.189Z,101342.41
2019-06-08T15:45:18.375Z,101364.86
2019-06-08T15:47:48.543Z,101344.38
2019-06-08T15:50:18.012Z,101393.48
2019-06-08T15:52:48.159Z,101370.56
2019-06-08T15:55:19.341Z,101362.39
2019-06-08T15:57:46.850Z,101364.22
2019-06-08T16:00:15.144Z,101362.72
2019-06-08T16:02:43.436Z,101355.40
2019-06-08T16:05:11.766Z,101361.74
2019-06-08T16:07:40.145Z,101354.38
2019-06-08T16:10:08.971Z,101349.87
2019-06-08T16:12:37.259Z,101348.75
2019-06-08T16:15:09.481Z,101350.27
2019-06-08T16:17:37.761Z,101343.44
2019-06-08T16:20:06.118Z,101351.95
2019-06-08T16:22:34.431Z,101352.58
2019-06-08T16:25:02.759Z,101355.98
2019-06-08T16:27:32.174Z,101365.80
2019-06-08T16:30:00.557Z,101365.31
2019-06-08T16:32:29.270Z,101367.11
2019-06-08T16:34:57.785Z,101354.18
2019-06-08T16:37:27.394Z,101358.16
2019-06-08T16:39:55.816Z,101362.63
2019-06-08T16:42:24.248Z,101362.77
2019-06-08T16:44:52.528Z,101358.71
2019-06-08T16:47:20.815Z,101371.27
2019-06-08T16:49:49.118Z,101376.55
2019-06-08T16:52:17.480Z,101375.13
2019-06-08T16:54:45.841Z,101383.62
2019-06-08T16:57:14.127Z,101389.62
2019-06-08T16:59:42.419Z,101391.53
2019-06-08T17:02:10.747Z,101390.94
2019-06-08T17:04:39.260Z,101394.56
2019-06-08T17:07:07.737Z,101400.79
2019-06-08T17:09:37.732Z,101400.58
2019-06-08T17:12:06.808Z,101399.98
2019-06-08T17:14:36.311Z,101412.98
2019-06-08T17:17:04.800Z,101404.84
2019-06-08T17:19:34.105Z,101407.03
2019-06-08T17:22:02.490Z,101409.84
2019-06-08T17:24:30.779Z,101411.49
2019-06-08T17:26:59.111Z,101410.70
2019-06-08T17:29:27.410Z,101414.69
2019-06-08T17:31:55.690Z,101424.13
2019-06-08T17:34:24.100Z,101426.87
2019-06-08T17:36:52.384Z,101425.98
2019-06-08T17:39:20.697Z,101422.73
2019-06-08T17:41:48.979Z,101422.31
2019-06-08T17:44:17.298Z,101416.17
2019-06-08T17:46:45.724Z,101417.96
2019-06-08T17:49:14.036Z,101421.84
2019-06-08T17:51:44.376Z,101425.11
2019-06-08T17:54:12.431Z,101428.64
2019-06-08T17:56:41.277Z,101429.63
2019-06-08T17:59:09.617Z,101420.71
2019-06-08T18:01:38.018Z,101423.73
2019-06-08T18:04:08.084Z,101426.62
2019-06-08T18:06:39.702Z,101437.92
2019-06-08T18:09:07.887Z,101441.15
2019-06-08T18:11:38.240Z,101451.67
2019-06-08T18:14:07.447Z,101452.48
2019-06-08T18:16:38.969Z,101462.19
2019-06-08T18:19:08.117Z,101460.05
2019-06-08T18:24:12.305Z,101459.02
2019-06-08T18:26:42.134Z,101462.59
2019-06-08T18:29:10.936Z,101473.56
2019-06-08T18:31:40.543Z,101468.22
2019-06-08T18:34:09.383Z,101466.67
2019-06-08T18:36:40.366Z,101469.95
2019-06-08T18:39:07.679Z,101472.75
2019-06-08T18:41:39.024Z,101471.59
2019-06-08T18:44:08.433Z,101477.95
2019-06-08T18:46:37.965Z,101471.70
2019-06-08T18:49:08.124Z,101473.75
2019-06-08T18:51:38.156Z,101474.16
2019-06-08T18:54:13.905Z,101481.08
2019-06-08T18:56:39.996Z,101486.80
2019-06-08T18:59:07.725Z,101489.32
2019-06-08T19:01:39.099Z,101490.44
2019-06-08T19:04:07.662Z,101503.77
2019-06-08T19:06:38.732Z,101495.74
2019-06-08T19:09:07.634Z,101502.73
2019-06-08T19:11:37.670Z,101503.06
2019-06-08T19:14:07.199Z,101500.98
2019-06-08T19:16:37.911Z,101512.14
2019-06-08T19:19:07.428Z,101516.72
2019-06-08T19:21:37.522Z,101522.05
2019-06-08T19:24:09.631Z,101522.67
2019-06-08T19:26:39.418Z,101525.02
2019-06-08T19:29:07.695Z,101523.34
2019-06-08T19:31:38.618Z,101537.08
2019-06-08T19:34:07.615Z,101539.56
2019-06-08T19:36:38.784Z,101537.08
2019-06-08T19:39:08.031Z,101536.91
2019-06-08T19:41:38.132Z,101539.72
2019-06-08T19:44:07.540Z,101543.10
2019-06-08T19:46:35.863Z,101539.08
2019-06-08T19:49:04.200Z,101548.72
2019-06-08T19:51:33.269Z,101560.04
2019-06-08T19:54:01.740Z,101564.67
2019-06-08T19:56:30.036Z,101571.66
2019-06-08T19:59:04.025Z,101573.41
2019-06-08T20:01:28.490Z,101577.33
2019-06-08T20:04:00.402Z,101579.95
2019-06-08T20:06:27.780Z,101581.14
2019-06-08T20:08:57.477Z,101582.64
2019-06-08T20:11:26.093Z,101588.27
2019-06-08T20:13:54.527Z,101597.97
2019-06-08T20:16:22.974Z,101601.77
2019-06-08T20:18:52.879Z,101609.55
2019-06-08T20:21:21.434Z,101613.31
2019-06-08T20:23:50.919Z,101620.20
2019-06-08T20:26:19.461Z,101624.69
2019-06-08T20:28:51.242Z,101628.91
2019-06-08T20:31:18.150Z,101631.52
2019-06-08T20:33:50.255Z,101631.09
2019-06-08T20:36:17.476Z,101637.25
2019-06-08T20:38:47.182Z,101637.86
2019-06-08T20:41:18.118Z,101643.47
2019-06-08T20:43:49.122Z,101651.77
2019-06-08T20:46:17.191Z,101648.44
2019-06-08T20:48:48.874Z,101657.21
2019-06-08T20:51:17.395Z,101652.86
2019-06-08T20:53:49.056Z,101665.52
2019-06-08T20:56:17.381Z,101656.91
2019-06-08T20:58:48.030Z,101658.59
2019-06-08T21:01:18.025Z,101665.27
2019-06-08T21:03:48.169Z,101668.05
2019-06-08T21:06:17.108Z,101670.83
2019-06-08T21:08:46.620Z,101668.95
2019-06-08T21:11:17.616Z,101668.95
2019-06-08T21:13:49.347Z,101670.06
2019-06-08T21:16:18.053Z,101676.30
2019-06-08T21:18:46.816Z,101676.93
2019-06-08T21:21:17.439Z,101675.52
2019-06-08T21:23:48.900Z,101678.77
2019-06-08T21:26:15.402Z,101677.55
2019-06-08T21:28:43.765Z,101686.33
2019-06-08T21:31:12.053Z,101683.59
2019-06-08T21:33:40.365Z,101693.20
2019-06-08T21:36:08.966Z,101694.13
2019-06-08T21:38:37.775Z,101694.19
2019-06-08T21:41:08.239Z,101693.19
2019-06-08T21:43:37.407Z,101700.10
2019-06-08T21:46:07.849Z,101705.50
2019-06-08T21:48:38.196Z,101704.98
2019-06-08T21:51:08.299Z,101706.91
2019-06-08T21:53:38.150Z,101710.48
2019-06-08T21:56:07.915Z,101717.30
2019-06-08T21:58:37.796Z,101719.28
2019-06-08T22:01:07.324Z,101714.70
2019-06-08T22:03:37.925Z,101716.86
2019-06-08T22:06:07.885Z,101717.66
2019-06-08T22:08:37.544Z,101715.50
2019-06-08T22:11:08.546Z,101718.22
2019-06-08T22:13:37.409Z,101717.13
2019-06-08T22:16:08.057Z,101714.98
2019-06-08T22:18:37.967Z,101720.20
2019-06-08T22:21:08.115Z,101721.56
2019-06-08T22:23:35.964Z,101733.20
2019-06-08T22:26:04.325Z,101724.52
2019-06-08T22:28:33.317Z,101728.91
2019-06-08T22:31:01.829Z,101728.42
2019-06-08T22:33:30.175Z,101730.63
2019-06-08T22:35:58.753Z,101728.48
2019-06-08T22:38:27.171Z,101732.61
2019-06-08T22:40:57.665Z,101737.23
2019-06-08T22:43:26.388Z,101733.28
2019-06-08T22:45:54.679Z,101735.17
2019-06-08T22:48:22.960Z,101733.50
2019-06-08T22:50:53.306Z,101740.58
2019-06-08T22:53:21.328Z,101740.62
2019-06-08T22:55:49.614Z,101744.17
2019-06-08T22:58:19.036Z,101748.48
2019-06-08T23:00:52.616Z,101750.41
2019-06-08T23:03:18.582Z,101758.84
2019-06-08T23:05:47.665Z,101757.97
2019-06-08T23:08:17.577Z,101759.84
2019-06-08T23:10:48.305Z,101762.05
2019-06-08T23:13:17.990Z,101760.74
2019-06-08T23:15:47.845Z,101761.36
2019-06-08T23:18:18.152Z,101754.29
2019-06-08T23:20:47.930Z,101755.95
2019-06-08T23:23:17.932Z,101762.33
2019-06-08T23:25:47.827Z,101763.73
2019-06-08T23:28:18.127Z,101767.86
2019-06-08T23:30:47.788Z,101769.36
2019-06-08T23:33:18.917Z,101766.95
2019-06-08T23:36:24.534Z,101773.23
2019-06-08T23:38:17.270Z,101771.47
2019-06-08T23:40:47.401Z,101775.25
2019-06-08T23:43:17.936Z,101771.21
2019-06-08T23:45:47.509Z,101770.64
2019-06-08T23:48:17.355Z,101768.53
2019-06-08T23:50:47.466Z,101763.09
2019-06-08T23:53:18.160Z,101769.14
2019-06-08T23:55:47.889Z,101770.84
2019-06-08T23:58:17.604Z,101764.05
